Terminal Aerodrome Forecast
Issued by NWS Springfield, MO

Home | Current Version | Previous Version | Text Only | Print | Product List | Glossary On
Versions: 1 2 3 4 5 6 7 8 9 10 11 12 13 14 15 16 17
000
FTUS43 KSGF 172300
TAFSGF
TAF
KSGF 172331Z 1800/1824 34009KT P6SM SCT080 OVC120
     FM180200 02004KT P6SM BKN080 OVC120
     FM180600 04003KT P6SM SCT080
     FM181100 06003KT 5SM BR SKC
     FM181300 08005KT P6SM FEW045=

USA.gov is the U.S. government's official web portal to all federal, state and local government web resources and services.